sensor_id;sensor_type;location;lat;lon;timestamp;pressure;altitude;pressure_sealevel;temperature
22322;BMP180;11328;53.928;18.522;2022-07-18T00:01:08;101118.00;;;16.10
22322;BMP180;11328;53.928;18.522;2022-07-18T00:03:35;101121.00;;;16.00
22322;BMP180;11328;53.928;18.522;2022-07-18T00:06:02;101119.00;;;16.00
22322;BMP180;11328;53.928;18.522;2022-07-18T00:08:29;101109.00;;;15.90
22322;BMP180;11328;53.928;18.522;2022-07-18T00:10:56;101111.00;;;16.00
22322;BMP180;11328;53.928;18.522;2022-07-18T00:13:23;101108.00;;;16.00
22322;BMP180;11328;53.928;18.522;2022-07-18T00:15:50;101108.00;;;16.00
22322;BMP180;11328;53.928;18.522;2022-07-18T00:18:17;101107.00;;;15.90
22322;BMP180;11328;53.928;18.522;2022-07-18T00:20:44;101109.00;;;16.00
22322;BMP180;11328;53.928;18.522;2022-07-18T00:23:11;101095.00;;;16.00
22322;BMP180;11328;53.928;18.522;2022-07-18T00:25:37;101091.00;;;16.00
22322;BMP180;11328;53.928;18.522;2022-07-18T00:28:04;101090.00;;;16.00
22322;BMP180;11328;53.928;18.522;2022-07-18T00:30:31;101096.00;;;16.10
22322;BMP180;11328;53.928;18.522;2022-07-18T00:32:58;101086.00;;;16.00
22322;BMP180;11328;53.928;18.522;2022-07-18T00:35:25;101094.00;;;16.00
22322;BMP180;11328;53.928;18.522;2022-07-18T00:37:52;101095.00;;;16.00
22322;BMP180;11328;53.928;18.522;2022-07-18T00:40:19;101085.00;;;15.90
22322;BMP180;11328;53.928;18.522;2022-07-18T00:42:46;101095.00;;;16.00
22322;BMP180;11328;53.928;18.522;2022-07-18T00:45:13;101080.00;;;15.90
22322;BMP180;11328;53.928;18.522;2022-07-18T00:47:40;101068.00;;;15.90
22322;BMP180;11328;53.928;18.522;2022-07-18T00:50:08;101101.00;;;15.80
22322;BMP180;11328;53.928;18.522;2022-07-18T00:52:36;101091.00;;;15.70
22322;BMP180;11328;53.928;18.522;2022-07-18T00:55:06;101087.00;;;15.80
22322;BMP180;11328;53.928;18.522;2022-07-18T00:57:34;101106.00;;;15.80
22322;BMP180;11328;53.928;18.522;2022-07-18T01:00:01;101103.00;;;15.80
22322;BMP180;11328;53.928;18.522;2022-07-18T01:02:47;101090.00;;;15.80
22322;BMP180;11328;53.928;18.522;2022-07-18T01:05:14;101101.00;;;15.70
22322;BMP180;11328;53.928;18.522;2022-07-18T01:07:41;101101.00;;;15.80
22322;BMP180;11328;53.928;18.522;2022-07-18T01:10:08;101107.00;;;15.80
22322;BMP180;11328;53.928;18.522;2022-07-18T01:12:35;101107.00;;;15.80
22322;BMP180;11328;53.928;18.522;2022-07-18T01:15:04;101104.00;;;15.80
22322;BMP180;11328;53.928;18.522;2022-07-18T01:17:32;101108.00;;;15.90
22322;BMP180;11328;53.928;18.522;2022-07-18T01:20:03;101093.00;;;15.80
22322;BMP180;11328;53.928;18.522;2022-07-18T01:22:30;101092.00;;;15.90
22322;BMP180;11328;53.928;18.522;2022-07-18T01:24:57;101099.00;;;15.90
22322;BMP180;11328;53.928;18.522;2022-07-18T01:27:25;101096.00;;;15.90
22322;BMP180;11328;53.928;18.522;2022-07-18T01:29:53;101093.00;;;16.00
22322;BMP180;11328;53.928;18.522;2022-07-18T01:32:20;101099.00;;;16.00
22322;BMP180;11328;53.928;18.522;2022-07-18T01:34:49;101090.00;;;16.10
22322;BMP180;11328;53.928;18.522;2022-07-18T01:37:17;101084.00;;;16.10
22322;BMP180;11328;53.928;18.522;2022-07-18T01:39:45;101090.00;;;16.20
22322;BMP180;11328;53.928;18.522;2022-07-18T01:42:13;101084.00;;;16.20
22322;BMP180;11328;53.928;18.522;2022-07-18T01:44:40;101065.00;;;16.10
22322;BMP180;11328;53.928;18.522;2022-07-18T01:47:10;101060.00;;;16.30
22322;BMP180;11328;53.928;18.522;2022-07-18T01:49:38;101085.00;;;16.30
22322;BMP180;11328;53.928;18.522;2022-07-18T01:52:06;101080.00;;;16.30
22322;BMP180;11328;53.928;18.522;2022-07-18T01:54:35;101080.00;;;16.10
22322;BMP180;11328;53.928;18.522;2022-07-18T01:57:04;101080.00;;;16.10
22322;BMP180;11328;53.928;18.522;2022-07-18T01:59:32;101077.00;;;16.10
22322;BMP180;11328;53.928;18.522;2022-07-18T02:01:59;101087.00;;;15.90
22322;BMP180;11328;53.928;18.522;2022-07-18T02:04:26;101085.00;;;15.90
22322;BMP180;11328;53.928;18.522;2022-07-18T02:07:12;101062.00;;;15.90
22322;BMP180;11328;53.928;18.522;2022-07-18T02:09:39;101085.00;;;16.00
22322;BMP180;11328;53.928;18.522;2022-07-18T02:12:06;101057.00;;;15.90
22322;BMP180;11328;53.928;18.522;2022-07-18T02:14:33;101073.00;;;15.90
22322;BMP180;11328;53.928;18.522;2022-07-18T02:17:00;101071.00;;;15.90
22322;BMP180;11328;53.928;18.522;2022-07-18T02:19:27;101079.00;;;16.00
22322;BMP180;11328;53.928;18.522;2022-07-18T02:21:53;101075.00;;;16.00
22322;BMP180;11328;53.928;18.522;2022-07-18T02:24:20;101068.00;;;15.90
22322;BMP180;11328;53.928;18.522;2022-07-18T02:26:47;101067.00;;;15.80
22322;BMP180;11328;53.928;18.522;2022-07-18T02:29:14;101045.00;;;15.70
22322;BMP180;11328;53.928;18.522;2022-07-18T02:31:41;101059.00;;;15.60
22322;BMP180;11328;53.928;18.522;2022-07-18T02:34:08;101070.00;;;15.60
22322;BMP180;11328;53.928;18.522;2022-07-18T02:36:39;101064.00;;;15.50
22322;BMP180;11328;53.928;18.522;2022-07-18T02:39:07;101071.00;;;15.40
22322;BMP180;11328;53.928;18.522;2022-07-18T02:41:38;101069.00;;;15.40
22322;BMP180;11328;53.928;18.522;2022-07-18T02:44:05;101050.00;;;15.40
22322;BMP180;11328;53.928;18.522;2022-07-18T02:46:32;101063.00;;;15.40
22322;BMP180;11328;53.928;18.522;2022-07-18T02:49:00;101067.00;;;15.40
22322;BMP180;11328;53.928;18.522;2022-07-18T02:51:27;101061.00;;;15.30
22322;BMP180;11328;53.928;18.522;2022-07-18T02:53:54;101067.00;;;15.30
22322;BMP180;11328;53.928;18.522;2022-07-18T02:56:21;101063.00;;;15.30
22322;BMP180;11328;53.928;18.522;2022-07-18T02:58:48;101056.00;;;15.30
22322;BMP180;11328;53.928;18.522;2022-07-18T03:01:15;101058.00;;;15.40
22322;BMP180;11328;53.928;18.522;2022-07-18T03:03:42;101056.00;;;15.40
22322;BMP180;11328;53.928;18.522;2022-07-18T03:06:09;101062.00;;;15.40
22322;BMP180;11328;53.928;18.522;2022-07-18T03:08:36;101073.00;;;15.50
22322;BMP180;11328;53.928;18.522;2022-07-18T03:11:03;101069.00;;;15.50
22322;BMP180;11328;53.928;18.522;2022-07-18T03:13:30;101066.00;;;15.50
22322;BMP180;11328;53.928;18.522;2022-07-18T03:15:57;101059.00;;;15.60
22322;BMP180;11328;53.928;18.522;2022-07-18T03:18:24;101060.00;;;15.60
22322;BMP180;11328;53.928;18.522;2022-07-18T03:20:52;101064.00;;;15.70
22322;BMP180;11328;53.928;18.522;2022-07-18T03:23:19;101068.00;;;15.70
22322;BMP180;11328;53.928;18.522;2022-07-18T03:25:46;101061.00;;;15.80
22322;BMP180;11328;53.928;18.522;2022-07-18T03:28:13;101059.00;;;15.80
22322;BMP180;11328;53.928;18.522;2022-07-18T03:30:40;101062.00;;;15.80
22322;BMP180;11328;53.928;18.522;2022-07-18T03:33:07;101066.00;;;15.80
22322;BMP180;11328;53.928;18.522;2022-07-18T03:35:34;101059.00;;;16.00
22322;BMP180;11328;53.928;18.522;2022-07-18T03:38:02;101067.00;;;16.00
22322;BMP180;11328;53.928;18.522;2022-07-18T03:40:29;101059.00;;;16.20
22322;BMP180;11328;53.928;18.522;2022-07-18T03:42:56;101059.00;;;16.10
22322;BMP180;11328;53.928;18.522;2022-07-18T03:45:23;101061.00;;;16.20
22322;BMP180;11328;53.928;18.522;2022-07-18T03:47:50;101052.00;;;16.40
22322;BMP180;11328;53.928;18.522;2022-07-18T03:50:17;101065.00;;;16.40
22322;BMP180;11328;53.928;18.522;2022-07-18T03:52:44;101070.00;;;16.40
22322;BMP180;11328;53.928;18.522;2022-07-18T03:55:11;101070.00;;;16.40
22322;BMP180;11328;53.928;18.522;2022-07-18T03:57:38;101071.00;;;16.50
22322;BMP180;11328;53.928;18.522;2022-07-18T04:00:07;101073.00;;;16.60
22322;BMP180;11328;53.928;18.522;2022-07-18T04:02:40;101075.00;;;16.50
22322;BMP180;11328;53.928;18.522;2022-07-18T04:05:09;101085.00;;;16.50
22322;BMP180;11328;53.928;18.522;2022-07-18T04:07:37;101073.00;;;16.40
22322;BMP180;11328;53.928;18.522;2022-07-18T04:10:06;101082.00;;;16.40
22322;BMP180;11328;53.928;18.522;2022-07-18T04:12:34;101075.00;;;16.40
22322;BMP180;11328;53.928;18.522;2022-07-18T04:15:01;101085.00;;;16.40
22322;BMP180;11328;53.928;18.522;2022-07-18T04:17:30;101082.00;;;16.30
22322;BMP180;11328;53.928;18.522;2022-07-18T04:19:57;101085.00;;;16.30
22322;BMP180;11328;53.928;18.522;2022-07-18T04:22:23;101083.00;;;16.30
22322;BMP180;11328;53.928;18.522;2022-07-18T04:24:50;101089.00;;;16.50
22322;BMP180;11328;53.928;18.522;2022-07-18T04:27:19;101081.00;;;16.50
22322;BMP180;11328;53.928;18.522;2022-07-18T04:29:46;101080.00;;;16.50
22322;BMP180;11328;53.928;18.522;2022-07-18T04:32:13;101075.00;;;16.40
22322;BMP180;11328;53.928;18.522;2022-07-18T04:34:40;101072.00;;;16.40
22322;BMP180;11328;53.928;18.522;2022-07-18T04:37:07;101075.00;;;16.50
22322;BMP180;11328;53.928;18.522;2022-07-18T04:39:34;101069.00;;;16.50
22322;BMP180;11328;53.928;18.522;2022-07-18T04:42:01;101069.00;;;16.70
22322;BMP180;11328;53.928;18.522;2022-07-18T04:44:28;101079.00;;;16.90
22322;BMP180;11328;53.928;18.522;2022-07-18T04:46:54;101066.00;;;16.90
22322;BMP180;11328;53.928;18.522;2022-07-18T04:49:22;101072.00;;;17.00
22322;BMP180;11328;53.928;18.522;2022-07-18T04:51:49;101071.00;;;17.00
22322;BMP180;11328;53.928;18.522;2022-07-18T04:54:15;101073.00;;;17.20
22322;BMP180;11328;53.928;18.522;2022-07-18T04:56:42;101068.00;;;17.20
22322;BMP180;11328;53.928;18.522;2022-07-18T04:59:12;101071.00;;;17.30
22322;BMP180;11328;53.928;18.522;2022-07-18T05:01:39;101068.00;;;17.60
22322;BMP180;11328;53.928;18.522;2022-07-18T05:04:06;101069.00;;;17.80
22322;BMP180;11328;53.928;18.522;2022-07-18T05:06:33;101068.00;;;17.90
22322;BMP180;11328;53.928;18.522;2022-07-18T05:09:00;101076.00;;;18.10
22322;BMP180;11328;53.928;18.522;2022-07-18T05:11:27;101079.00;;;18.30
22322;BMP180;11328;53.928;18.522;2022-07-18T05:13:54;101083.00;;;18.50
22322;BMP180;11328;53.928;18.522;2022-07-18T05:16:21;101085.00;;;18.60
22322;BMP180;11328;53.928;18.522;2022-07-18T05:18:48;101083.00;;;18.70
22322;BMP180;11328;53.928;18.522;2022-07-18T05:21:15;101076.00;;;18.80
22322;BMP180;11328;53.928;18.522;2022-07-18T05:23:43;101080.00;;;19.00
22322;BMP180;11328;53.928;18.522;2022-07-18T05:26:12;101055.00;;;19.30
22322;BMP180;11328;53.928;18.522;2022-07-18T05:28:39;101083.00;;;19.60
22322;BMP180;11328;53.928;18.522;2022-07-18T05:31:06;101063.00;;;19.70
22322;BMP180;11328;53.928;18.522;2022-07-18T05:33:33;101075.00;;;19.90
22322;BMP180;11328;53.928;18.522;2022-07-18T05:36:04;101084.00;;;20.00
22322;BMP180;11328;53.928;18.522;2022-07-18T05:38:31;101082.00;;;20.10
22322;BMP180;11328;53.928;18.522;2022-07-18T05:40:58;101079.00;;;20.00
22322;BMP180;11328;53.928;18.522;2022-07-18T05:43:25;101080.00;;;20.10
22322;BMP180;11328;53.928;18.522;2022-07-18T05:45:52;101087.00;;;20.20
22322;BMP180;11328;53.928;18.522;2022-07-18T05:48:19;101085.00;;;20.50
22322;BMP180;11328;53.928;18.522;2022-07-18T05:50:46;101093.00;;;20.70
22322;BMP180;11328;53.928;18.522;2022-07-18T05:53:13;101096.00;;;20.60
22322;BMP180;11328;53.928;18.522;2022-07-18T05:55:40;101094.00;;;20.70
22322;BMP180;11328;53.928;18.522;2022-07-18T05:58:07;101099.00;;;20.50
22322;BMP180;11328;53.928;18.522;2022-07-18T06:00:34;101094.00;;;20.50
22322;BMP180;11328;53.928;18.522;2022-07-18T06:03:01;101095.00;;;20.70
22322;BMP180;11328;53.928;18.522;2022-07-18T06:05:28;101092.00;;;20.60
22322;BMP180;11328;53.928;18.522;2022-07-18T06:07:56;101103.00;;;20.60
22322;BMP180;11328;53.928;18.522;2022-07-18T06:10:25;101106.00;;;20.60
22322;BMP180;11328;53.928;18.522;2022-07-18T06:12:53;101111.00;;;20.70
22322;BMP180;11328;53.928;18.522;2022-07-18T06:15:21;101106.00;;;20.90
22322;BMP180;11328;53.928;18.522;2022-07-18T06:17:49;101108.00;;;20.90
22322;BMP180;11328;53.928;18.522;2022-07-18T06:20:17;101120.00;;;21.20
22322;BMP180;11328;53.928;18.522;2022-07-18T06:22:44;101092.00;;;21.20
22322;BMP180;11328;53.928;18.522;2022-07-18T06:25:11;101101.00;;;21.30
22322;BMP180;11328;53.928;18.522;2022-07-18T06:27:38;101099.00;;;21.50
22322;BMP180;11328;53.928;18.522;2022-07-18T06:30:07;101094.00;;;21.70
22322;BMP180;11328;53.928;18.522;2022-07-18T06:32:37;101102.00;;;21.80
22322;BMP180;11328;53.928;18.522;2022-07-18T06:35:05;101091.00;;;21.60
22322;BMP180;11328;53.928;18.522;2022-07-18T06:37:32;101100.00;;;21.50
22322;BMP180;11328;53.928;18.522;2022-07-18T06:39:59;101106.00;;;21.40
22322;BMP180;11328;53.928;18.522;2022-07-18T06:42:29;101103.00;;;21.50
22322;BMP180;11328;53.928;18.522;2022-07-18T06:44:56;101110.00;;;21.50
22322;BMP180;11328;53.928;18.522;2022-07-18T06:47:23;101108.00;;;21.70
22322;BMP180;11328;53.928;18.522;2022-07-18T06:49:50;101107.00;;;21.70
22322;BMP180;11328;53.928;18.522;2022-07-18T06:52:17;101102.00;;;21.80
22322;BMP180;11328;53.928;18.522;2022-07-18T06:54:44;101099.00;;;21.80
22322;BMP180;11328;53.928;18.522;2022-07-18T06:57:11;101096.00;;;21.80
22322;BMP180;11328;53.928;18.522;2022-07-18T06:59:38;101101.00;;;21.90
22322;BMP180;11328;53.928;18.522;2022-07-18T07:02:11;101096.00;;;22.00
22322;BMP180;11328;53.928;18.522;2022-07-18T07:04:38;101093.00;;;22.00
22322;BMP180;11328;53.928;18.522;2022-07-18T07:07:05;101093.00;;;22.50
22322;BMP180;11328;53.928;18.522;2022-07-18T07:09:32;101088.00;;;23.00
22322;BMP180;11328;53.928;18.522;2022-07-18T07:11:59;101105.00;;;22.70
22322;BMP180;11328;53.928;18.522;2022-07-18T07:14:26;101094.00;;;22.40
22322;BMP180;11328;53.928;18.522;2022-07-18T07:16:53;101103.00;;;22.50
22322;BMP180;11328;53.928;18.522;2022-07-18T07:19:20;101095.00;;;22.90
22322;BMP180;11328;53.928;18.522;2022-07-18T07:21:47;101099.00;;;22.80
22322;BMP180;11328;53.928;18.522;2022-07-18T07:24:14;101101.00;;;22.60
22322;BMP180;11328;53.928;18.522;2022-07-18T07:26:41;101099.00;;;22.20
22322;BMP180;11328;53.928;18.522;2022-07-18T07:29:08;101096.00;;;22.10
22322;BMP180;11328;53.928;18.522;2022-07-18T07:31:35;101094.00;;;22.20
22322;BMP180;11328;53.928;18.522;2022-07-18T07:34:02;101099.00;;;22.30
22322;BMP180;11328;53.928;18.522;2022-07-18T07:36:32;101107.00;;;22.30
22322;BMP180;11328;53.928;18.522;2022-07-18T07:39:00;101103.00;;;22.20
22322;BMP180;11328;53.928;18.522;2022-07-18T07:41:27;101117.00;;;22.30
22322;BMP180;11328;53.928;18.522;2022-07-18T07:43:54;101108.00;;;22.30
22322;BMP180;11328;53.928;18.522;2022-07-18T07:46:21;101117.00;;;22.10
22322;BMP180;11328;53.928;18.522;2022-07-18T07:48:48;101115.00;;;21.80
22322;BMP180;11328;53.928;18.522;2022-07-18T07:51:15;101117.00;;;21.90
22322;BMP180;11328;53.928;18.522;2022-07-18T07:53:50;101126.00;;;22.10
22322;BMP180;11328;53.928;18.522;2022-07-18T07:56:17;101122.00;;;22.10
22322;BMP180;11328;53.928;18.522;2022-07-18T07:58:47;101131.00;;;22.10
22322;BMP180;11328;53.928;18.522;2022-07-18T08:01:17;101123.00;;;22.00
22322;BMP180;11328;53.928;18.522;2022-07-18T08:03:46;101126.00;;;21.90
22322;BMP180;11328;53.928;18.522;2022-07-18T08:06:15;101124.00;;;21.90
22322;BMP180;11328;53.928;18.522;2022-07-18T08:08:42;101121.00;;;21.90
22322;BMP180;11328;53.928;18.522;2022-07-18T08:11:10;101126.00;;;21.90
22322;BMP180;11328;53.928;18.522;2022-07-18T08:13:37;101109.00;;;21.80
22322;BMP180;11328;53.928;18.522;2022-07-18T08:16:04;101118.00;;;21.70
22322;BMP180;11328;53.928;18.522;2022-07-18T08:18:31;101129.00;;;21.90
22322;BMP180;11328;53.928;18.522;2022-07-18T08:20:58;101127.00;;;21.80
22322;BMP180;11328;53.928;18.522;2022-07-18T08:23:24;101125.00;;;21.80
22322;BMP180;11328;53.928;18.522;2022-07-18T08:25:51;101126.00;;;21.90
22322;BMP180;11328;53.928;18.522;2022-07-18T08:28:18;101128.00;;;22.10
22322;BMP180;11328;53.928;18.522;2022-07-18T08:30:45;101132.00;;;22.20
22322;BMP180;11328;53.928;18.522;2022-07-18T08:33:12;101130.00;;;22.40
22322;BMP180;11328;53.928;18.522;2022-07-18T08:35:42;101115.00;;;22.40
22322;BMP180;11328;53.928;18.522;2022-07-18T08:38:09;101121.00;;;22.30
22322;BMP180;11328;53.928;18.522;2022-07-18T08:40:38;101128.00;;;22.10
22322;BMP180;11328;53.928;18.522;2022-07-18T08:43:05;101126.00;;;22.10
22322;BMP180;11328;53.928;18.522;2022-07-18T08:45:54;101129.00;;;22.10
22322;BMP180;11328;53.928;18.522;2022-07-18T08:48:23;101120.00;;;21.90
22322;BMP180;11328;53.928;18.522;2022-07-18T08:50:50;101127.00;;;21.90
22322;BMP180;11328;53.928;18.522;2022-07-18T08:53:19;101125.00;;;22.10
22322;BMP180;11328;53.928;18.522;2022-07-18T08:55:48;101119.00;;;22.30
22322;BMP180;11328;53.928;18.522;2022-07-18T08:58:16;101118.00;;;22.50
22322;BMP180;11328;53.928;18.522;2022-07-18T09:01:05;101119.00;;;22.60
22322;BMP180;11328;53.928;18.522;2022-07-18T09:03:32;101117.00;;;22.70
22322;BMP180;11328;53.928;18.522;2022-07-18T09:06:13;101127.00;;;22.90
22322;BMP180;11328;53.928;18.522;2022-07-18T09:09:01;101116.00;;;22.90
22322;BMP180;11328;53.928;18.522;2022-07-18T09:11:28;101120.00;;;22.60
22322;BMP180;11328;53.928;18.522;2022-07-18T09:14:33;101115.00;;;22.70
22322;BMP180;11328;53.928;18.522;2022-07-18T09:17:25;101113.00;;;22.80
22322;BMP180;11328;53.928;18.522;2022-07-18T09:22:41;101112.00;;;22.80
22322;BMP180;11328;53.928;18.522;2022-07-18T09:25:16;101103.00;;;22.80
22322;BMP180;11328;53.928;18.522;2022-07-18T09:27:49;101116.00;;;22.80
22322;BMP180;11328;53.928;18.522;2022-07-18T09:33:07;101108.00;;;22.90
22322;BMP180;11328;53.928;18.522;2022-07-18T09:35:47;101102.00;;;23.00
22322;BMP180;11328;53.928;18.522;2022-07-18T09:38:22;101108.00;;;23.20
22322;BMP180;11328;53.928;18.522;2022-07-18T09:40:55;101099.00;;;23.30
22322;BMP180;11328;53.928;18.522;2022-07-18T09:43:25;101093.00;;;23.40
22322;BMP180;11328;53.928;18.522;2022-07-18T09:45:55;101100.00;;;23.40
22322;BMP180;11328;53.928;18.522;2022-07-18T09:48:26;101087.00;;;23.50
22322;BMP180;11328;53.928;18.522;2022-07-18T09:50:59;101086.00;;;23.70
22322;BMP180;11328;53.928;18.522;2022-07-18T09:56:07;101087.00;;;24.00
22322;BMP180;11328;53.928;18.522;2022-07-18T09:58:55;101089.00;;;24.00
22322;BMP180;11328;53.928;18.522;2022-07-18T10:01:23;101089.00;;;24.20
22322;BMP180;11328;53.928;18.522;2022-07-18T10:03:51;101074.00;;;24.40
22322;BMP180;11328;53.928;18.522;2022-07-18T10:06:19;101048.00;;;24.80
22322;BMP180;11328;53.928;18.522;2022-07-18T10:08:46;101070.00;;;24.80
22322;BMP180;11328;53.928;18.522;2022-07-18T10:11:13;101077.00;;;24.90
22322;BMP180;11328;53.928;18.522;2022-07-18T10:13:40;101080.00;;;24.70
22322;BMP180;11328;53.928;18.522;2022-07-18T10:16:07;101073.00;;;24.80
22322;BMP180;11328;53.928;18.522;2022-07-18T10:18:36;101085.00;;;25.00
22322;BMP180;11328;53.928;18.522;2022-07-18T10:21:13;101079.00;;;25.20
22322;BMP180;11328;53.928;18.522;2022-07-18T10:23:45;101101.00;;;25.00
22322;BMP180;11328;53.928;18.522;2022-07-18T10:26:25;101074.00;;;24.80
22322;BMP180;11328;53.928;18.522;2022-07-18T10:31:32;101096.00;;;25.30
22322;BMP180;11328;53.928;18.522;2022-07-18T10:39:37;101108.00;;;25.40
22322;BMP180;11328;53.928;18.522;2022-07-18T10:44:38;101106.00;;;25.10
22322;BMP180;11328;53.928;18.522;2022-07-18T10:47:11;101096.00;;;25.50
22322;BMP180;11328;53.928;18.522;2022-07-18T10:50:05;101091.00;;;25.30
22322;BMP180;11328;53.928;18.522;2022-07-18T10:57:42;101108.00;;;25.00
22322;BMP180;11328;53.928;18.522;2022-07-18T11:00:24;101095.00;;;24.90
22322;BMP180;11328;53.928;18.522;2022-07-18T11:03:04;101096.00;;;24.70
22322;BMP180;11328;53.928;18.522;2022-07-18T11:24:09;101069.00;;;25.40
22322;BMP180;11328;53.928;18.522;2022-07-18T11:26:47;101082.00;;;25.40
22322;BMP180;11328;53.928;18.522;2022-07-18T11:29:17;101080.00;;;25.40
22322;BMP180;11328;53.928;18.522;2022-07-18T11:31:57;101074.00;;;25.30
22322;BMP180;11328;53.928;18.522;2022-07-18T11:34:25;101078.00;;;25.30
22322;BMP180;11328;53.928;18.522;2022-07-18T11:37:06;101074.00;;;25.40
22322;BMP180;11328;53.928;18.522;2022-07-18T11:39:34;101076.00;;;25.20
22322;BMP180;11328;53.928;18.522;2022-07-18T11:42:03;101062.00;;;25.00
22322;BMP180;11328;53.928;18.522;2022-07-18T11:44:32;101086.00;;;24.80
22322;BMP180;11328;53.928;18.522;2022-07-18T11:47:11;101075.00;;;24.70
22322;BMP180;11328;53.928;18.522;2022-07-18T11:49:39;101091.00;;;24.90
22322;BMP180;11328;53.928;18.522;2022-07-18T11:52:07;101091.00;;;24.80
22322;BMP180;11328;53.928;18.522;2022-07-18T11:54:35;101091.00;;;24.60
22322;BMP180;11328;53.928;18.522;2022-07-18T11:57:02;101103.00;;;24.70
22322;BMP180;11328;53.928;18.522;2022-07-18T11:59:44;101087.00;;;24.60
22322;BMP180;11328;53.928;18.522;2022-07-18T12:02:11;101081.00;;;25.00
22322;BMP180;11328;53.928;18.522;2022-07-18T12:04:39;101092.00;;;25.10
22322;BMP180;11328;53.928;18.522;2022-07-18T12:07:24;101091.00;;;25.10
22322;BMP180;11328;53.928;18.522;2022-07-18T12:09:53;101075.00;;;25.30
22322;BMP180;11328;53.928;18.522;2022-07-18T12:12:22;101054.00;;;25.00
22322;BMP180;11328;53.928;18.522;2022-07-18T12:15:00;101051.00;;;24.90
22322;BMP180;11328;53.928;18.522;2022-07-18T12:17:30;101060.00;;;25.10
22322;BMP180;11328;53.928;18.522;2022-07-18T12:20:13;101062.00;;;25.10
22322;BMP180;11328;53.928;18.522;2022-07-18T12:23:09;101061.00;;;25.30
22322;BMP180;11328;53.928;18.522;2022-07-18T12:25:42;101048.00;;;25.20
22322;BMP180;11328;53.928;18.522;2022-07-18T12:28:17;101039.00;;;25.30
22322;BMP180;11328;53.928;18.522;2022-07-18T12:30:46;101043.00;;;25.70
22322;BMP180;11328;53.928;18.522;2022-07-18T12:33:13;101052.00;;;25.50
22322;BMP180;11328;53.928;18.522;2022-07-18T12:35:41;101048.00;;;25.60
22322;BMP180;11328;53.928;18.522;2022-07-18T12:38:16;101057.00;;;25.60
22322;BMP180;11328;53.928;18.522;2022-07-18T12:40:55;101050.00;;;25.70
22322;BMP180;11328;53.928;18.522;2022-07-18T12:43:37;101046.00;;;26.20
22322;BMP180;11328;53.928;18.522;2022-07-18T12:46:10;101052.00;;;26.40
22322;BMP180;11328;53.928;18.522;2022-07-18T12:48:38;101041.00;;;25.90
22322;BMP180;11328;53.928;18.522;2022-07-18T12:51:08;101045.00;;;26.00
22322;BMP180;11328;53.928;18.522;2022-07-18T12:53:39;101044.00;;;26.30
22322;BMP180;11328;53.928;18.522;2022-07-18T12:56:07;101047.00;;;26.30
22322;BMP180;11328;53.928;18.522;2022-07-18T12:58:35;101044.00;;;26.40
22322;BMP180;11328;53.928;18.522;2022-07-18T13:01:02;101046.00;;;26.40
22322;BMP180;11328;53.928;18.522;2022-07-18T13:03:34;101040.00;;;26.40
22322;BMP180;11328;53.928;18.522;2022-07-18T13:06:01;101042.00;;;26.10
22322;BMP180;11328;53.928;18.522;2022-07-18T13:08:28;101050.00;;;25.90
22322;BMP180;11328;53.928;18.522;2022-07-18T13:10:55;101038.00;;;26.20
22322;BMP180;11328;53.928;18.522;2022-07-18T13:13:25;101036.00;;;26.30
22322;BMP180;11328;53.928;18.522;2022-07-18T13:15:52;101042.00;;;26.30
22322;BMP180;11328;53.928;18.522;2022-07-18T13:18:20;101035.00;;;26.20
22322;BMP180;11328;53.928;18.522;2022-07-18T13:20:47;101040.00;;;26.30
22322;BMP180;11328;53.928;18.522;2022-07-18T13:23:14;101028.00;;;26.50
22322;BMP180;11328;53.928;18.522;2022-07-18T13:25:43;101032.00;;;26.40
22322;BMP180;11328;53.928;18.522;2022-07-18T13:28:10;101037.00;;;26.30
22322;BMP180;11328;53.928;18.522;2022-07-18T13:30:37;101028.00;;;26.10
22322;BMP180;11328;53.928;18.522;2022-07-18T13:33:05;101014.00;;;26.20
22322;BMP180;11328;53.928;18.522;2022-07-18T13:35:32;101035.00;;;26.40
22322;BMP180;11328;53.928;18.522;2022-07-18T13:38:00;101035.00;;;26.40
22322;BMP180;11328;53.928;18.522;2022-07-18T13:40:27;101040.00;;;26.50
22322;BMP180;11328;53.928;18.522;2022-07-18T13:42:55;101055.00;;;26.70
22322;BMP180;11328;53.928;18.522;2022-07-18T13:45:22;101050.00;;;26.80
22322;BMP180;11328;53.928;18.522;2022-07-18T13:47:49;101050.00;;;26.70
22322;BMP180;11328;53.928;18.522;2022-07-18T13:50:16;101037.00;;;26.60
22322;BMP180;11328;53.928;18.522;2022-07-18T13:52:44;101044.00;;;26.70
22322;BMP180;11328;53.928;18.522;2022-07-18T13:55:11;101040.00;;;26.80
22322;BMP180;11328;53.928;18.522;2022-07-18T13:57:38;101055.00;;;26.80
22322;BMP180;11328;53.928;18.522;2022-07-18T14:00:07;101043.00;;;26.90
22322;BMP180;11328;53.928;18.522;2022-07-18T14:02:36;101044.00;;;26.90
22322;BMP180;11328;53.928;18.522;2022-07-18T14:05:04;101038.00;;;26.90
22322;BMP180;11328;53.928;18.522;2022-07-18T14:07:39;101053.00;;;26.80
22322;BMP180;11328;53.928;18.522;2022-07-18T14:10:06;101055.00;;;26.80
22322;BMP180;11328;53.928;18.522;2022-07-18T14:12:34;101047.00;;;26.70
22322;BMP180;11328;53.928;18.522;2022-07-18T14:15:01;101042.00;;;26.70
22322;BMP180;11328;53.928;18.522;2022-07-18T14:17:28;101051.00;;;26.80
22322;BMP180;11328;53.928;18.522;2022-07-18T14:19:57;101048.00;;;26.70
22322;BMP180;11328;53.928;18.522;2022-07-18T14:33:30;101055.00;;;26.70
22322;BMP180;11328;53.928;18.522;2022-07-18T14:35:57;101058.00;;;26.60
22322;BMP180;11328;53.928;18.522;2022-07-18T14:38:24;101068.00;;;26.60
22322;BMP180;11328;53.928;18.522;2022-07-18T14:40:51;101064.00;;;26.50
22322;BMP180;11328;53.928;18.522;2022-07-18T14:43:18;101055.00;;;26.60
22322;BMP180;11328;53.928;18.522;2022-07-18T14:45:45;101061.00;;;26.30
22322;BMP180;11328;53.928;18.522;2022-07-18T14:48:28;101054.00;;;26.20